createdAt,value
2022-07-27T00:00:57.449Z,17.41
2022-07-27T00:03:23.925Z,17.51
2022-07-27T00:05:50.402Z,17.21
2022-07-27T00:08:20.832Z,17.11
2022-07-27T00:10:47.378Z,16.84
2022-07-27T00:13:13.840Z,16.87
2022-07-27T00:15:40.323Z,17.01
2022-07-27T00:18:06.755Z,17.27
2022-07-27T00:20:33.337Z,17.19
2022-07-27T00:23:01.864Z,16.94
2022-07-27T00:25:28.298Z,17.04
2022-07-27T00:27:57.043Z,17.14
2022-07-27T00:30:24.606Z,17.17
2022-07-27T00:32:51.284Z,17.14
2022-07-27T00:35:17.776Z,17.09
2022-07-27T00:37:44.360Z,16.91
2022-07-27T00:40:11.475Z,16.90
2022-07-27T00:42:38.291Z,16.89
2022-07-27T00:45:05.823Z,16.82
2022-07-27T00:47:33.283Z,16.70
2022-07-27T00:50:00.411Z,16.55
2022-07-27T00:52:28.670Z,16.54
2022-07-27T00:54:55.507Z,16.62
2022-07-27T00:57:22.955Z,16.60
2022-07-27T00:59:52.178Z,16.40
2022-07-27T01:02:22.970Z,16.54
2022-07-27T01:04:50.040Z,16.39
2022-07-27T01:07:23.643Z,16.34
2022-07-27T01:09:59.083Z,16.28
2022-07-27T01:12:31.604Z,16.39
2022-07-27T01:14:59.382Z,16.45
2022-07-27T01:17:27.276Z,16.29
2022-07-27T01:19:54.274Z,16.32
2022-07-27T01:22:21.030Z,16.31
2022-07-27T01:24:49.338Z,16.22
2022-07-27T01:27:18.191Z,16.25
2022-07-27T01:29:44.762Z,16.00
2022-07-27T01:32:11.243Z,16.20
2022-07-27T01:34:37.748Z,16.21
2022-07-27T01:37:05.126Z,16.32
2022-07-27T01:39:34.771Z,16.48
2022-07-27T01:42:01.596Z,16.49
2022-07-27T01:44:28.418Z,16.57
2022-07-27T01:46:55.336Z,16.59
2022-07-27T01:49:23.049Z,16.47
2022-07-27T01:51:49.687Z,16.24
2022-07-27T01:54:16.125Z,16.33
2022-07-27T01:56:42.577Z,16.26
2022-07-27T01:59:16.787Z,16.42
2022-07-27T02:01:44.137Z,16.13
2022-07-27T02:04:18.051Z,15.95
2022-07-27T02:06:44.519Z,16.02
2022-07-27T02:09:11.133Z,16.12
2022-07-27T02:11:56.138Z,16.08
2022-07-27T02:14:22.739Z,15.48
2022-07-27T02:16:50.684Z,16.00
2022-07-27T02:19:18.419Z,16.01
2022-07-27T02:21:45.157Z,16.16
2022-07-27T02:24:11.664Z,16.10
2022-07-27T02:26:38.123Z,15.68
2022-07-27T02:29:05.324Z,16.07
2022-07-27T02:31:32.790Z,16.01
2022-07-27T02:33:59.719Z,16.07
2022-07-27T02:36:29.043Z,16.09
2022-07-27T02:38:55.967Z,16.01
2022-07-27T02:41:22.532Z,16.08
2022-07-27T02:43:49.243Z,15.79
2022-07-27T02:46:15.903Z,16.01
2022-07-27T02:48:43.599Z,15.87
2022-07-27T02:51:10.235Z,15.64
2022-07-27T02:53:36.762Z,14.82
2022-07-27T02:56:03.718Z,15.53
2022-07-27T02:58:30.591Z,15.46
2022-07-27T03:00:58.707Z,15.50
2022-07-27T03:03:35.925Z,15.74
2022-07-27T03:06:05.937Z,15.70
2022-07-27T03:08:33.461Z,15.56
2022-07-27T03:11:00.155Z,15.49
2022-07-27T03:13:26.876Z,15.43
2022-07-27T03:15:53.424Z,15.62
2022-07-27T03:18:20.073Z,15.67
2022-07-27T03:20:46.479Z,15.67
2022-07-27T03:23:13.094Z,15.32
2022-07-27T03:25:40.071Z,15.66
2022-07-27T03:28:06.512Z,15.64
2022-07-27T03:30:33.336Z,15.79
2022-07-27T03:33:00.082Z,15.95
2022-07-27T03:35:26.482Z,15.82
2022-07-27T03:37:53.153Z,15.54
2022-07-27T03:40:19.582Z,15.28
2022-07-27T03:42:46.534Z,15.29
2022-07-27T03:45:12.932Z,15.49
2022-07-27T03:47:39.521Z,15.35
2022-07-27T03:50:06.954Z,15.35
2022-07-27T03:52:34.027Z,15.34
2022-07-27T03:55:00.438Z,15.22
2022-07-27T03:57:27.864Z,15.36
2022-07-27T03:59:56.029Z,15.21
2022-07-27T04:02:22.597Z,15.29
2022-07-27T04:04:49.140Z,15.35
2022-07-27T04:07:17.378Z,15.37
2022-07-27T04:09:44.142Z,15.44
2022-07-27T04:12:13.755Z,15.46
2022-07-27T04:14:43.133Z,15.47
2022-07-27T04:17:09.866Z,15.53
2022-07-27T04:19:36.474Z,15.69
2022-07-27T04:22:03.369Z,15.90
2022-07-27T04:24:30.573Z,16.06
2022-07-27T04:26:56.990Z,16.13
2022-07-27T04:29:24.333Z,16.11
2022-07-27T04:31:50.967Z,16.10
2022-07-27T04:34:19.049Z,16.22
2022-07-27T04:36:45.682Z,16.21
2022-07-27T04:39:12.876Z,16.30
2022-07-27T04:41:39.555Z,16.26
2022-07-27T04:44:05.934Z,16.26
2022-07-27T04:46:32.423Z,16.17
2022-07-27T04:48:58.937Z,16.33
2022-07-27T04:51:27.374Z,16.25
2022-07-27T04:53:58.349Z,16.39
2022-07-27T04:56:28.168Z,16.29
2022-07-27T04:58:55.813Z,16.27
2022-07-27T05:01:26.643Z,16.40
2022-07-27T05:03:57.841Z,16.36
2022-07-27T05:06:25.226Z,16.37
2022-07-27T05:08:52.215Z,16.27
2022-07-27T05:11:20.205Z,16.29
2022-07-27T05:13:50.023Z,16.31
2022-07-27T05:16:19.197Z,16.43
2022-07-27T05:18:46.256Z,16.43
2022-07-27T05:21:12.814Z,16.25
2022-07-27T05:23:39.198Z,16.55
2022-07-27T05:26:05.643Z,16.53
2022-07-27T05:28:32.304Z,16.36
2022-07-27T05:30:58.863Z,16.49
2022-07-27T05:33:27.405Z,16.40
2022-07-27T05:35:55.476Z,16.33
2022-07-27T05:38:22.375Z,16.30
2022-07-27T05:40:48.999Z,16.54
2022-07-27T05:43:15.394Z,16.48
2022-07-27T05:45:41.948Z,16.59
2022-07-27T05:48:08.429Z,16.51
2022-07-27T05:50:35.108Z,16.75
2022-07-27T05:53:01.623Z,16.86
2022-07-27T05:55:28.897Z,16.89
2022-07-27T05:57:55.681Z,16.91
2022-07-27T06:00:23.184Z,16.79
2022-07-27T06:02:49.602Z,16.82
2022-07-27T06:05:17.438Z,16.91
2022-07-27T06:08:00.009Z,16.84
2022-07-27T06:10:28.714Z,16.52
2022-07-27T06:12:55.496Z,16.74
2022-07-27T06:15:22.812Z,16.80
2022-07-27T06:17:52.651Z,16.89
2022-07-27T06:20:20.600Z,17.10
2022-07-27T06:22:49.673Z,17.13
2022-07-27T06:25:17.356Z,17.16
2022-07-27T06:27:44.145Z,17.13
2022-07-27T06:30:14.360Z,17.30
2022-07-27T06:32:41.183Z,17.34
2022-07-27T06:35:11.034Z,17.38
2022-07-27T06:37:43.988Z,17.42
2022-07-27T06:40:14.623Z,17.67
2022-07-27T06:42:41.999Z,17.69
2022-07-27T06:45:09.191Z,17.72
2022-07-27T06:47:36.098Z,17.67
2022-07-27T06:50:18.102Z,18.01
2022-07-27T06:52:44.753Z,18.21
2022-07-27T06:55:11.205Z,18.30
2022-07-27T06:57:39.487Z,18.59
2022-07-27T07:00:06.926Z,18.24
2022-07-27T07:02:33.345Z,18.21
2022-07-27T07:04:59.809Z,18.66
2022-07-27T07:07:26.318Z,18.42
2022-07-27T07:09:53.031Z,18.71
2022-07-27T07:12:20.010Z,18.76
2022-07-27T07:14:47.064Z,18.90
2022-07-27T07:17:13.503Z,18.59
2022-07-27T07:19:40.071Z,18.70
2022-07-27T07:22:06.482Z,18.36
2022-07-27T07:24:33.049Z,18.43
2022-07-27T07:26:59.509Z,18.50
2022-07-27T07:29:25.975Z,18.80
2022-07-27T07:31:52.823Z,18.82
2022-07-27T07:34:19.366Z,18.98
2022-07-27T07:36:47.814Z,19.63
2022-07-27T07:39:14.791Z,19.85
2022-07-27T07:41:41.581Z,20.69
2022-07-27T07:44:09.180Z,20.48
2022-07-27T07:46:37.134Z,20.36
2022-07-27T07:49:05.339Z,21.00
2022-07-27T07:51:32.164Z,21.01
2022-07-27T07:53:59.128Z,20.97
2022-07-27T07:56:25.701Z,21.08
2022-07-27T07:58:52.146Z,20.75
2022-07-27T08:01:18.857Z,21.07
2022-07-27T08:03:50.638Z,21.09
2022-07-27T08:06:17.375Z,21.79
2022-07-27T08:08:43.951Z,22.16
2022-07-27T08:11:10.586Z,22.59
2022-07-27T08:13:37.202Z,22.40
2022-07-27T08:16:03.806Z,19.81
2022-07-27T08:18:30.273Z,20.39
2022-07-27T08:20:56.655Z,19.55
2022-07-27T08:23:23.143Z,20.62
2022-07-27T08:25:49.731Z,20.82
2022-07-27T08:28:16.187Z,20.79
2022-07-27T08:30:42.723Z,20.58
2022-07-27T08:33:10.348Z,22.37
2022-07-27T08:35:38.221Z,22.43
2022-07-27T08:38:07.530Z,23.50
2022-07-27T08:40:44.673Z,23.56
2022-07-27T08:43:21.469Z,24.45
2022-07-27T08:45:59.993Z,26.20
2022-07-27T08:48:28.890Z,24.51
2022-07-27T08:50:55.960Z,26.52
2022-07-27T08:53:23.593Z,25.71
2022-07-27T08:55:50.609Z,25.17
2022-07-27T08:58:17.625Z,26.73
2022-07-27T09:00:48.226Z,26.72
2022-07-27T09:03:19.591Z,26.32
2022-07-27T09:05:50.930Z,26.10
2022-07-27T09:08:24.653Z,27.31
2022-07-27T09:10:56.212Z,25.76
2022-07-27T09:13:30.836Z,25.98
2022-07-27T09:18:47.093Z,22.61
2022-07-27T09:21:23.359Z,24.40
2022-07-27T09:23:53.717Z,24.79
2022-07-27T09:26:33.403Z,23.55
2022-07-27T09:29:15.282Z,23.93
2022-07-27T09:31:43.093Z,24.38
2022-07-27T09:34:10.947Z,24.16
2022-07-27T09:36:53.179Z,24.92
2022-07-27T09:39:22.554Z,25.09
2022-07-27T09:41:55.640Z,26.22
2022-07-27T09:44:42.135Z,24.83
2022-07-27T09:47:29.691Z,25.61
2022-07-27T09:49:58.738Z,26.92
2022-07-27T09:52:28.061Z,27.90
2022-07-27T09:55:07.074Z,26.49
2022-07-27T09:57:56.649Z,26.06
2022-07-27T10:00:24.820Z,25.26
2022-07-27T10:02:52.776Z,25.31
2022-07-27T10:05:23.082Z,25.70
2022-07-27T10:07:55.987Z,25.84
2022-07-27T10:10:26.091Z,26.94
2022-07-27T10:12:55.160Z,27.14
2022-07-27T10:15:25.010Z,26.46
2022-07-27T10:18:07.118Z,26.22
2022-07-27T10:20:38.157Z,24.87
2022-07-27T10:23:04.626Z,25.09
2022-07-27T10:25:38.040Z,23.36
2022-07-27T10:28:10.857Z,24.52
2022-07-27T10:30:38.615Z,26.54
2022-07-27T10:33:42.994Z,25.92
2022-07-27T10:36:35.472Z,26.13
2022-07-27T10:39:07.127Z,25.21
2022-07-27T10:41:37.763Z,25.34
2022-07-27T10:44:17.721Z,24.36
2022-07-27T10:46:55.199Z,24.90
2022-07-27T10:49:40.233Z,23.52
2022-07-27T10:52:07.278Z,22.58
2022-07-27T10:54:39.851Z,23.57
2022-07-27T10:57:08.641Z,23.30
2022-07-27T11:00:06.262Z,23.77
2022-07-27T11:02:42.093Z,23.56
2022-07-27T11:05:53.832Z,23.41
2022-07-27T11:10:48.130Z,23.39
2022-07-27T11:13:16.984Z,24.15
2022-07-27T11:16:22.832Z,23.55
2022-07-27T11:18:58.953Z,26.02
2022-07-27T11:21:27.068Z,26.53
2022-07-27T11:24:05.952Z,25.96
2022-07-27T11:26:39.912Z,25.40
2022-07-27T11:29:12.030Z,24.77
2022-07-27T11:31:58.111Z,25.08
2022-07-27T11:34:30.463Z,25.29
2022-07-27T11:37:01.680Z,23.81
2022-07-27T11:42:21.323Z,24.11
2022-07-27T11:44:51.075Z,24.60
2022-07-27T11:47:19.446Z,24.41
2022-07-27T11:49:46.608Z,24.34
2022-07-27T11:52:18.472Z,24.58
2022-07-27T11:54:52.039Z,24.96
2022-07-27T11:57:22.555Z,24.81
2022-07-27T11:59:49.046Z,24.20
2022-07-27T12:02:20.952Z,23.54
2022-07-27T12:04:49.461Z,22.04
2022-07-27T12:07:24.804Z,22.27
2022-07-27T12:09:57.068Z,22.28
2022-07-27T12:12:29.161Z,23.50
2022-07-27T12:15:42.778Z,22.96
2022-07-27T12:18:01.304Z,22.67
2022-07-27T12:20:35.768Z,23.39
2022-07-27T12:23:08.218Z,24.12
2022-07-27T12:25:35.571Z,23.11
2022-07-27T12:28:13.328Z,25.13
2022-07-27T12:30:45.945Z,26.80
2022-07-27T12:33:28.479Z,26.95
2022-07-27T12:35:56.509Z,26.98
2022-07-27T12:38:27.322Z,24.25
2022-07-27T12:41:00.939Z,25.29
2022-07-27T12:43:27.973Z,26.10
2022-07-27T12:45:56.613Z,25.49
2022-07-27T12:48:26.167Z,24.81
2022-07-27T12:51:02.222Z,25.04
2022-07-27T12:53:30.551Z,25.18
2022-07-27T12:56:00.111Z,24.63
2022-07-27T12:58:29.957Z,24.27
2022-07-27T13:00:57.333Z,24.15
2022-07-27T13:03:23.911Z,24.36
2022-07-27T13:05:50.699Z,24.68
2022-07-27T13:08:17.274Z,24.58
2022-07-27T13:10:44.560Z,24.70
2022-07-27T13:13:11.327Z,24.34
2022-07-27T13:15:37.758Z,24.36
2022-07-27T13:18:04.721Z,24.13
2022-07-27T13:20:31.920Z,24.46
2022-07-27T13:23:01.948Z,24.09
2022-07-27T13:25:28.856Z,24.62
2022-07-27T13:27:55.312Z,24.75
2022-07-27T13:30:24.773Z,24.02
2022-07-27T13:32:51.533Z,24.15
2022-07-27T13:35:18.120Z,24.72
2022-07-27T13:37:45.080Z,23.90
2022-07-27T13:40:12.637Z,24.46
2022-07-27T13:42:39.260Z,24.73
2022-07-27T13:45:10.510Z,24.28
2022-07-27T13:47:40.034Z,23.91
2022-07-27T13:50:15.046Z,24.65
2022-07-27T13:52:46.106Z,24.55
2022-07-27T13:55:14.492Z,24.05
2022-07-27T13:57:41.003Z,23.71
2022-07-27T14:00:08.244Z,24.37
2022-07-27T14:02:34.832Z,23.95
2022-07-27T14:05:02.525Z,24.13
2022-07-27T14:07:31.153Z,24.23
2022-07-27T14:10:16.785Z,23.98
2022-07-27T14:12:43.225Z,23.85
2022-07-27T14:15:10.200Z,23.86
2022-07-27T14:17:37.583Z,24.08
2022-07-27T14:20:05.864Z,24.30
2022-07-27T14:22:32.300Z,24.21
2022-07-27T14:24:58.748Z,23.86
2022-07-27T14:27:25.545Z,23.78
2022-07-27T14:29:52.049Z,23.09
2022-07-27T14:32:19.067Z,23.89
2022-07-27T14:34:45.509Z,24.32
2022-07-27T14:37:11.981Z,24.45
2022-07-27T14:39:39.384Z,24.19
2022-07-27T14:42:06.102Z,23.96
2022-07-27T14:44:34.791Z,23.74
2022-07-27T14:47:01.336Z,23.86
2022-07-27T14:49:28.190Z,23.45
2022-07-27T14:51:54.671Z,23.46
2022-07-27T14:54:21.094Z,23.96
2022-07-27T14:56:48.551Z,23.29
2022-07-27T14:59:15.395Z,23.45
2022-07-27T15:01:42.339Z,22.68
2022-07-27T15:04:09.302Z,22.87
2022-07-27T15:06:39.042Z,22.54
2022-07-27T15:09:06.334Z,23.39
2022-07-27T15:11:33.015Z,23.73
2022-07-27T15:13:59.783Z,24.06
2022-07-27T15:16:26.523Z,23.91
2022-07-27T15:18:52.970Z,24.21
2022-07-27T15:21:19.451Z,24.36
2022-07-27T15:23:45.950Z,24.48
2022-07-27T15:26:13.213Z,24.09
2022-07-27T15:28:41.376Z,24.04
2022-07-27T15:31:08.185Z,23.78
2022-07-27T15:33:34.681Z,23.53
2022-07-27T15:36:01.350Z,23.81
2022-07-27T15:38:27.965Z,23.13
2022-07-27T15:40:54.494Z,23.28
2022-07-27T15:43:20.940Z,23.49
2022-07-27T15:45:49.564Z,23.39
2022-07-27T15:48:18.117Z,23.43
2022-07-27T15:50:51.477Z,23.18
2022-07-27T15:53:19.263Z,23.19
2022-07-27T15:55:46.114Z,23.06
2022-07-27T15:58:17.680Z,23.14
2022-07-27T16:00:45.871Z,23.07
2022-07-27T16:03:14.797Z,22.52
2022-07-27T16:05:42.759Z,22.86
2022-07-27T16:08:10.401Z,22.84
2022-07-27T16:10:41.320Z,22.89
2022-07-27T16:13:09.931Z,22.93
2022-07-27T16:15:56.133Z,22.88
2022-07-27T16:18:24.532Z,22.57
2022-07-27T16:20:52.455Z,22.43
2022-07-27T16:23:21.695Z,22.38
2022-07-27T16:26:08.323Z,22.17
2022-07-27T16:28:41.136Z,22.06
2022-07-27T16:31:10.562Z,21.79
2022-07-27T16:33:38.240Z,21.85
2022-07-27T16:36:06.147Z,21.88
2022-07-27T16:38:35.035Z,21.68
2022-07-27T16:41:03.148Z,21.81
2022-07-27T16:43:37.354Z,21.87
2022-07-27T16:46:07.392Z,21.91
2022-07-27T16:48:41.958Z,21.67
2022-07-27T16:51:11.039Z,21.84
2022-07-27T16:53:43.016Z,21.79
2022-07-27T16:56:10.889Z,21.80
2022-07-27T16:58:38.102Z,21.76
2022-07-27T17:01:05.229Z,21.78
2022-07-27T17:03:31.885Z,21.65
2022-07-27T17:06:05.182Z,21.83
2022-07-27T17:08:33.012Z,21.78
2022-07-27T17:11:05.381Z,21.75
2022-07-27T17:13:33.555Z,21.56
2022-07-27T17:16:08.204Z,21.70
2022-07-27T17:18:40.232Z,21.66
2022-07-27T17:21:07.826Z,21.62
2022-07-27T17:23:38.395Z,21.61
2022-07-27T17:26:07.324Z,21.57
2022-07-27T17:28:38.463Z,21.54
2022-07-27T17:31:07.276Z,21.49
2022-07-27T17:33:34.054Z,21.43
2022-07-27T17:36:00.509Z,21.38
2022-07-27T17:38:27.824Z,21.44
2022-07-27T17:40:54.808Z,21.35
2022-07-27T17:43:21.280Z,21.23
2022-07-27T17:45:47.927Z,21.14
2022-07-27T17:48:14.907Z,21.11
2022-07-27T17:50:41.561Z,21.03
2022-07-27T17:53:08.358Z,20.91
2022-07-27T17:55:36.336Z,20.94
2022-07-27T17:58:03.991Z,20.98
2022-07-27T18:00:31.572Z,20.97
2022-07-27T18:02:58.395Z,20.68
2022-07-27T18:05:25.048Z,20.82
2022-07-27T18:07:53.200Z,20.71
2022-07-27T18:10:20.670Z,20.66
2022-07-27T18:12:47.213Z,20.63
2022-07-27T18:15:32.323Z,20.50
2022-07-27T18:17:58.900Z,20.47
2022-07-27T18:20:25.585Z,20.43
2022-07-27T18:22:52.999Z,20.36
2022-07-27T18:25:22.622Z,20.32
2022-07-27T18:27:50.294Z,20.20
2022-07-27T18:30:17.696Z,20.02
2022-07-27T18:32:45.477Z,20.20
2022-07-27T18:35:12.940Z,19.98
2022-07-27T18:37:39.603Z,20.09
2022-07-27T18:40:13.796Z,19.94
2022-07-27T18:42:40.956Z,19.95
2022-07-27T18:45:12.606Z,19.86
2022-07-27T18:47:39.261Z,19.84
2022-07-27T18:50:07.780Z,19.87
2022-07-27T18:52:34.480Z,19.64
2022-07-27T18:55:01.018Z,19.66
2022-07-27T18:57:28.667Z,19.53
2022-07-27T18:59:55.063Z,19.52
2022-07-27T19:02:23.616Z,19.36
2022-07-27T19:04:50.710Z,19.30
2022-07-27T19:07:17.292Z,19.21
2022-07-27T19:09:46.667Z,19.13
2022-07-27T19:12:13.437Z,19.15
2022-07-27T19:14:39.955Z,19.03
2022-07-27T19:17:06.519Z,18.83
2022-07-27T19:19:37.472Z,18.93
2022-07-27T19:22:04.124Z,18.95
2022-07-27T19:24:30.808Z,18.75
2022-07-27T19:26:57.585Z,18.82
2022-07-27T19:29:24.804Z,18.74
2022-07-27T19:31:51.620Z,18.64
2022-07-27T19:34:18.479Z,18.62
2022-07-27T19:36:45.849Z,18.59
2022-07-27T19:39:13.104Z,18.53
2022-07-27T19:41:39.979Z,18.47
2022-07-27T19:44:06.956Z,18.20
2022-07-27T19:46:33.588Z,17.93
2022-07-27T19:49:00.638Z,17.45
2022-07-27T19:51:27.503Z,17.42
2022-07-27T19:53:54.207Z,17.19
2022-07-27T19:56:20.640Z,16.80
2022-07-27T19:58:47.154Z,16.56
2022-07-27T20:01:13.717Z,16.43
2022-07-27T20:03:48.705Z,16.27
2022-07-27T20:06:20.412Z,16.11
2022-07-27T20:08:48.072Z,15.91
2022-07-27T20:11:14.556Z,16.00
2022-07-27T20:13:41.198Z,15.96
2022-07-27T20:16:07.687Z,15.65
2022-07-27T20:18:35.583Z,15.53
2022-07-27T20:21:02.734Z,15.38
2022-07-27T20:23:29.258Z,15.34
2022-07-27T20:25:56.059Z,15.23
2022-07-27T20:28:22.566Z,15.14
2022-07-27T20:30:49.101Z,15.13
2022-07-27T20:33:19.499Z,15.05
2022-07-27T20:35:46.032Z,15.00
2022-07-27T20:38:12.766Z,14.88
2022-07-27T20:40:39.196Z,14.84
2022-07-27T20:43:05.661Z,14.75
2022-07-27T20:45:33.585Z,14.70
2022-07-27T20:48:00.051Z,14.59
2022-07-27T20:50:30.204Z,14.53
2022-07-27T20:53:05.230Z,14.34
2022-07-27T20:55:33.647Z,14.36
2022-07-27T20:58:00.145Z,14.39
2022-07-27T21:00:29.221Z,14.24
2022-07-27T21:02:56.539Z,14.13
2022-07-27T21:05:27.135Z,14.00
2022-07-27T21:07:59.462Z,13.96
2022-07-27T21:10:25.918Z,13.86
2022-07-27T21:12:52.737Z,13.78
2022-07-27T21:15:19.280Z,13.78
2022-07-27T21:17:45.729Z,13.74
2022-07-27T21:20:13.584Z,13.63
2022-07-27T21:22:40.111Z,13.51
2022-07-27T21:25:09.843Z,13.49
2022-07-27T21:27:37.672Z,13.44
2022-07-27T21:30:07.564Z,13.42
2022-07-27T21:32:34.001Z,13.24
2022-07-27T21:35:00.630Z,13.36
2022-07-27T21:37:33.536Z,12.89
2022-07-27T21:39:59.972Z,13.18
2022-07-27T21:42:26.426Z,13.14
2022-07-27T21:44:52.858Z,13.08
2022-07-27T21:47:19.262Z,13.08
2022-07-27T21:49:45.717Z,13.06
2022-07-27T21:52:12.223Z,13.06
2022-07-27T21:54:38.911Z,13.03
2022-07-27T21:57:05.476Z,12.80
2022-07-27T21:59:32.317Z,12.73
2022-07-27T22:02:00.832Z,12.56
2022-07-27T22:04:28.345Z,12.64
2022-07-27T22:06:55.159Z,12.58
2022-07-27T22:09:21.632Z,12.51
2022-07-27T22:11:48.319Z,12.48
2022-07-27T22:14:15.389Z,12.44
2022-07-27T22:16:42.467Z,12.48
2022-07-27T22:19:09.018Z,12.53
2022-07-27T22:21:35.463Z,12.52
2022-07-27T22:24:01.899Z,12.31
2022-07-27T22:26:28.337Z,12.46
2022-07-27T22:28:55.021Z,12.26
2022-07-27T22:31:23.383Z,12.13
2022-07-27T22:33:50.197Z,12.20
2022-07-27T22:36:16.627Z,12.18
2022-07-27T22:38:43.072Z,12.19
2022-07-27T22:41:09.789Z,12.22
2022-07-27T22:43:36.760Z,12.17
2022-07-27T22:46:04.246Z,12.13
2022-07-27T22:48:31.035Z,12.04
2022-07-27T22:50:57.482Z,12.08
2022-07-27T22:53:24.006Z,11.95
2022-07-27T22:55:50.535Z,11.94
2022-07-27T22:58:16.977Z,11.91
2022-07-27T23:00:43.896Z,11.90
2022-07-27T23:03:10.354Z,11.93
2022-07-27T23:05:36.904Z,11.96
2022-07-27T23:08:03.364Z,11.99
2022-07-27T23:10:47.771Z,11.93
2022-07-27T23:13:19.089Z,11.95
2022-07-27T23:15:47.090Z,11.85
2022-07-27T23:18:14.528Z,11.73
2022-07-27T23:20:41.797Z,11.73
2022-07-27T23:23:15.478Z,11.69
2022-07-27T23:25:43.105Z,11.56
2022-07-27T23:28:09.633Z,11.71
2022-07-27T23:30:36.569Z,11.60
2022-07-27T23:33:03.049Z,11.71
2022-07-27T23:35:32.425Z,11.54
2022-07-27T23:38:02.251Z,11.49
2022-07-27T23:40:28.710Z,11.39
2022-07-27T23:42:55.140Z,11.39
2022-07-27T23:45:21.762Z,11.55
2022-07-27T23:47:48.221Z,11.43
2022-07-27T23:50:14.878Z,11.43
2022-07-27T23:52:43.035Z,11.41
2022-07-27T23:55:10.585Z,11.44
2022-07-27T23:57:38.212Z,11.42
